sensor_id;sensor_type;location;lat;lon;timestamp;pressure;altitude;pressure_sealevel;temperature;humidity
75650;BME280;64245;51.282;22.494;2022-12-18T00:01:31;100461.06;;;-8.23;97.14
75650;BME280;64245;51.282;22.494;2022-12-18T00:03:59;100484.59;;;-8.11;97.66
75650;BME280;64245;51.282;22.494;2022-12-18T00:06:29;100484.56;;;-8.04;97.10
75650;BME280;64245;51.282;22.494;2022-12-18T00:08:57;100462.81;;;-8.13;96.49
75650;BME280;64245;51.282;22.494;2022-12-18T00:11:24;100484.59;;;-7.91;96.61
75650;BME280;64245;51.282;22.494;2022-12-18T00:13:53;100495.03;;;-8.05;96.79
75650;BME280;64245;51.282;22.494;2022-12-18T00:16:22;100504.59;;;-8.04;97.62
75650;BME280;64245;51.282;22.494;2022-12-18T00:18:50;100497.66;;;-8.08;96.50
75650;BME280;64245;51.282;22.494;2022-12-18T00:21:16;100506.38;;;-7.89;97.09
75650;BME280;64245;51.282;22.494;2022-12-18T00:23:44;100506.34;;;-8.02;96.45
75650;BME280;64245;51.282;22.494;2022-12-18T00:26:15;100515.06;;;-8.18;97.30
75650;BME280;64245;51.282;22.494;2022-12-18T00:28:42;100496.78;;;-8.12;97.24
75650;BME280;64245;51.282;22.494;2022-12-18T00:31:11;100522.94;;;-8.09;96.71
75650;BME280;64245;51.282;22.494;2022-12-18T00:33:37;100514.19;;;-8.02;96.92
75650;BME280;64245;51.282;22.494;2022-12-18T00:36:06;100509.84;;;-8.12;95.83
75650;BME280;64245;51.282;22.494;2022-12-18T00:38:33;100507.25;;;-8.36;96.27
75650;BME280;64245;51.282;22.494;2022-12-18T00:40:59;100527.28;;;-8.11;96.43
75650;BME280;64245;51.282;22.494;2022-12-18T00:43:25;100537.72;;;-8.18;96.63
75650;BME280;64245;51.282;22.494;2022-12-18T00:45:51;100525.50;;;-8.06;96.04
75650;BME280;64245;51.282;22.494;2022-12-18T00:48:16;100529.91;;;-8.09;96.73
75650;BME280;64245;51.282;22.494;2022-12-18T00:50:42;100501.16;;;-8.11;95.80
75650;BME280;64245;51.282;22.494;2022-12-18T00:53:11;100536.84;;;-8.04;95.96
75650;BME280;64245;51.282;22.494;2022-12-18T00:55:38;100549.91;;;-8.13;96.09
75650;BME280;64245;51.282;22.494;2022-12-18T00:58:04;100542.06;;;-8.29;97.27
75650;BME280;64245;51.282;22.494;2022-12-18T01:00:30;100523.78;;;-8.19;97.41
75650;BME280;64245;51.282;22.494;2022-12-18T01:02:55;100552.53;;;-7.99;96.75
75650;BME280;64245;51.282;22.494;2022-12-18T01:05:21;100540.31;;;-8.05;97.02
75650;BME280;64245;51.282;22.494;2022-12-18T01:07:47;100542.06;;;-8.05;96.40
75650;BME280;64245;51.282;22.494;2022-12-18T01:10:13;100543.84;;;-7.96;96.18
75650;BME280;64245;51.282;22.494;2022-12-18T01:12:38;100547.28;;;-8.04;96.27
75650;BME280;64245;51.282;22.494;2022-12-18T01:15:06;100562.09;;;-8.18;97.33
75650;BME280;64245;51.282;22.494;2022-12-18T01:17:32;100549.88;;;-8.22;96.48
75650;BME280;64245;51.282;22.494;2022-12-18T01:19:58;100564.72;;;-8.12;96.98
75650;BME280;64245;51.282;22.494;2022-12-18T01:22:23;100563.84;;;-8.14;97.14
75650;BME280;64245;51.282;22.494;2022-12-18T01:24:49;100566.47;;;-8.02;97.17
75650;BME280;64245;51.282;22.494;2022-12-18T01:27:15;100572.56;;;-7.98;96.15
75650;BME280;64245;51.282;22.494;2022-12-18T01:29:41;100578.69;;;-7.93;96.30
75650;BME280;64245;51.282;22.494;2022-12-18T01:32:06;100562.94;;;-8.23;96.94
75650;BME280;64245;51.282;22.494;2022-12-18T01:34:32;100575.13;;;-8.25;97.27
75650;BME280;64245;51.282;22.494;2022-12-18T01:37:02;100558.59;;;-8.20;97.33
75650;BME280;64245;51.282;22.494;2022-12-18T01:39:28;100565.56;;;-8.19;96.57
75650;BME280;64245;51.282;22.494;2022-12-18T01:41:54;100567.31;;;-8.18;96.55
75650;BME280;64245;51.282;22.494;2022-12-18T01:44:58;100596.13;;;-7.93;96.10
75650;BME280;64245;51.282;22.494;2022-12-18T01:47:29;100570.84;;;-8.08;96.52
75650;BME280;64245;51.282;22.494;2022-12-18T01:49:57;100587.41;;;-7.95;95.71
75650;BME280;64245;51.282;22.494;2022-12-18T01:52:26;100590.00;;;-8.00;97.11
75650;BME280;64245;51.282;22.494;2022-12-18T01:54:54;100577.78;;;-8.16;97.62
75650;BME280;64245;51.282;22.494;2022-12-18T01:57:20;100582.16;;;-8.00;96.86
75650;BME280;64245;51.282;22.494;2022-12-18T01:59:49;100599.56;;;-8.02;97.00
75650;BME280;64245;51.282;22.494;2022-12-18T02:02:16;100583.03;;;-8.12;96.98
75650;BME280;64245;51.282;22.494;2022-12-18T02:04:42;100617.03;;;-7.86;97.24
75650;BME280;64245;51.282;22.494;2022-12-18T02:09:46;100592.59;;;-8.15;96.62
75650;BME280;64245;51.282;22.494;2022-12-18T02:12:19;100627.47;;;-7.87;97.51
75650;BME280;64245;51.282;22.494;2022-12-18T02:17:22;100615.28;;;-7.93;96.29
75650;BME280;64245;51.282;22.494;2022-12-18T02:20:08;100624.00;;;-7.86;96.43
75650;BME280;64245;51.282;22.494;2022-12-18T02:22:55;100592.63;;;-7.94;96.21
75650;BME280;64245;51.282;22.494;2022-12-18T02:27:54;100610.91;;;-7.98;97.04
75650;BME280;64245;51.282;22.494;2022-12-18T02:30:24;100634.47;;;-7.77;98.17
75650;BME280;64245;51.282;22.494;2022-12-18T02:32:52;100628.38;;;-7.78;97.60
75650;BME280;64245;51.282;22.494;2022-12-18T02:35:23;100640.59;;;-7.64;97.29
75650;BME280;64245;51.282;22.494;2022-12-18T02:37:57;100648.44;;;-7.71;97.36
75650;BME280;64245;51.282;22.494;2022-12-18T02:40:26;100633.63;;;-7.73;96.82
75650;BME280;64245;51.282;22.494;2022-12-18T02:42:52;100637.97;;;-7.71;97.49
75650;BME280;64245;51.282;22.494;2022-12-18T02:45:18;100645.81;;;-7.78;97.23
75650;BME280;64245;51.282;22.494;2022-12-18T02:47:47;100637.09;;;-7.60;96.73
75650;BME280;64245;51.282;22.494;2022-12-18T02:50:18;100667.59;;;-7.64;96.86
75650;BME280;64245;51.282;22.494;2022-12-18T02:53:15;100635.34;;;-7.64;97.23
75650;BME280;64245;51.282;22.494;2022-12-18T03:01:25;100667.63;;;-7.59;97.28
75650;BME280;64245;51.282;22.494;2022-12-18T03:04:16;100674.59;;;-7.46;97.43
75650;BME280;64245;51.282;22.494;2022-12-18T03:06:49;100659.78;;;-7.53;97.35
75650;BME280;64245;51.282;22.494;2022-12-18T03:09:21;100669.38;;;-7.42;96.64
75650;BME280;64245;51.282;22.494;2022-12-18T03:11:55;100664.13;;;-7.45;96.80
75650;BME280;64245;51.282;22.494;2022-12-18T03:14:41;100663.25;;;-7.48;96.79
75650;BME280;64245;51.282;22.494;2022-12-18T03:17:14;100675.50;;;-7.32;96.17
75650;BME280;64245;51.282;22.494;2022-12-18T03:19:42;100672.88;;;-7.41;96.89
75650;BME280;64245;51.282;22.494;2022-12-18T03:22:10;100637.97;;;-7.68;97.29
75650;BME280;64245;51.282;22.494;2022-12-18T03:24:36;100658.03;;;-7.53;96.66
75650;BME280;64245;51.282;22.494;2022-12-18T03:27:09;100657.16;;;-7.61;97.36
75650;BME280;64245;51.282;22.494;2022-12-18T03:29:46;100664.13;;;-7.61;97.06
75650;BME280;64245;51.282;22.494;2022-12-18T03:32:39;100666.78;;;-7.51;96.86
75650;BME280;64245;51.282;22.494;2022-12-18T03:35:04;100685.94;;;-7.44;96.96
75650;BME280;64245;51.282;22.494;2022-12-18T03:37:31;100689.44;;;-7.21;95.93
75650;BME280;64245;51.282;22.494;2022-12-18T03:39:57;100676.38;;;-7.33;96.18
75650;BME280;64245;51.282;22.494;2022-12-18T03:48:06;100704.28;;;-7.18;96.23
75650;BME280;64245;51.282;22.494;2022-12-18T03:53:14;100715.63;;;-7.04;95.46
75650;BME280;64245;51.282;22.494;2022-12-18T03:55:44;100711.25;;;-7.16;95.60
75650;BME280;64245;51.282;22.494;2022-12-18T03:58:13;100721.72;;;-7.17;95.93
75650;BME280;64245;51.282;22.494;2022-12-18T04:00:41;100716.47;;;-7.31;96.67
75650;BME280;64245;51.282;22.494;2022-12-18T04:03:08;100719.97;;;-7.18;95.98
75650;BME280;64245;51.282;22.494;2022-12-18T04:05:36;100710.38;;;-7.22;96.35
75650;BME280;64245;51.282;22.494;2022-12-18T04:08:03;100714.75;;;-7.03;95.53
75650;BME280;64245;51.282;22.494;2022-12-18T04:10:29;100734.81;;;-6.99;95.53
75650;BME280;64245;51.282;22.494;2022-12-18T04:12:56;100712.97;;;-7.12;95.09
75650;BME280;64245;51.282;22.494;2022-12-18T04:15:22;100714.75;;;-7.21;95.68
75650;BME280;64245;51.282;22.494;2022-12-18T04:17:49;100743.53;;;-7.00;95.91
75650;BME280;64245;51.282;22.494;2022-12-18T04:20:14;100724.34;;;-6.98;94.94
75650;BME280;64245;51.282;22.494;2022-12-18T04:22:40;100740.94;;;-6.95;95.48
75650;BME280;64245;51.282;22.494;2022-12-18T04:25:06;100751.41;;;-6.76;94.53
75650;BME280;64245;51.282;22.494;2022-12-18T04:27:32;100761.00;;;-6.85;94.30
75650;BME280;64245;51.282;22.494;2022-12-18T04:29:57;100758.38;;;-7.01;94.68
75650;BME280;64245;51.282;22.494;2022-12-18T04:32:23;100756.63;;;-7.03;95.23
75650;BME280;64245;51.282;22.494;2022-12-18T04:34:48;100730.44;;;-7.21;95.02
75650;BME280;64245;51.282;22.494;2022-12-18T04:37:14;100746.13;;;-7.26;95.24
75650;BME280;64245;51.282;22.494;2022-12-18T04:39:40;100753.13;;;-7.08;94.57
75650;BME280;64245;51.282;22.494;2022-12-18T04:42:06;100760.09;;;-7.24;94.76
75650;BME280;64245;51.282;22.494;2022-12-18T04:44:31;100764.50;;;-7.14;94.88
75650;BME280;64245;51.282;22.494;2022-12-18T04:46:57;100777.56;;;-7.15;94.66
75650;BME280;64245;51.282;22.494;2022-12-18T04:49:22;100788.06;;;-7.12;94.70
75650;BME280;64245;51.282;22.494;2022-12-18T04:51:48;100776.69;;;-7.16;94.72
75650;BME280;64245;51.282;22.494;2022-12-18T04:54:14;100795.88;;;-7.20;94.62
75650;BME280;64245;51.282;22.494;2022-12-18T04:56:39;100796.78;;;-6.97;94.39
75650;BME280;64245;51.282;22.494;2022-12-18T04:59:05;100787.16;;;-7.17;94.34
75650;BME280;64245;51.282;22.494;2022-12-18T05:01:34;100813.34;;;-7.13;94.28
75650;BME280;64245;51.282;22.494;2022-12-18T05:03:59;100793.22;;;-7.29;94.54
75650;BME280;64245;51.282;22.494;2022-12-18T05:06:25;100804.59;;;-7.19;94.88
75650;BME280;64245;51.282;22.494;2022-12-18T05:08:51;100804.59;;;-7.19;94.23
75650;BME280;64245;51.282;22.494;2022-12-18T05:11:17;100801.09;;;-7.34;94.33
75650;BME280;64245;51.282;22.494;2022-12-18T05:13:44;100809.81;;;-7.35;94.38
75650;BME280;64245;51.282;22.494;2022-12-18T05:16:10;100836.00;;;-7.21;94.46
75650;BME280;64245;51.282;22.494;2022-12-18T05:18:37;100831.66;;;-7.16;93.80
75650;BME280;64245;51.282;22.494;2022-12-18T05:21:03;100829.94;;;-7.15;94.44
75650;BME280;64245;51.282;22.494;2022-12-18T05:23:29;100815.03;;;-7.39;93.72
75650;BME280;64245;51.282;22.494;2022-12-18T05:26:02;100840.38;;;-7.17;93.67
75650;BME280;64245;51.282;22.494;2022-12-18T05:28:30;100828.16;;;-7.22;94.27
75650;BME280;64245;51.282;22.494;2022-12-18T05:30:59;100824.66;;;-7.26;93.83
75650;BME280;64245;51.282;22.494;2022-12-18T05:33:27;100833.38;;;-7.28;92.73
75650;BME280;64245;51.282;22.494;2022-12-18T05:35:55;100860.41;;;-7.26;93.96
75650;BME280;64245;51.282;22.494;2022-12-18T05:38:21;100866.50;;;-7.27;93.70
75650;BME280;64245;51.282;22.494;2022-12-18T05:40:48;100856.94;;;-7.32;94.04
75650;BME280;64245;51.282;22.494;2022-12-18T05:43:14;100869.19;;;-7.15;92.97
75650;BME280;64245;51.282;22.494;2022-12-18T05:45:40;100856.94;;;-7.32;94.00
75650;BME280;64245;51.282;22.494;2022-12-18T05:48:07;100864.75;;;-7.30;94.10
75650;BME280;64245;51.282;22.494;2022-12-18T05:50:37;100857.78;;;-7.34;94.36
75650;BME280;64245;51.282;22.494;2022-12-18T05:53:04;100875.28;;;-7.19;94.17
75650;BME280;64245;51.282;22.494;2022-12-18T05:55:38;100856.06;;;-7.32;93.50
75650;BME280;64245;51.282;22.494;2022-12-18T05:58:04;100885.72;;;-7.24;93.71
75650;BME280;64245;51.282;22.494;2022-12-18T06:00:32;100881.31;;;-7.31;93.60
75650;BME280;64245;51.282;22.494;2022-12-18T06:02:58;100872.63;;;-7.33;93.38
75650;BME280;64245;51.282;22.494;2022-12-18T06:05:25;100868.22;;;-7.43;93.14
75650;BME280;64245;51.282;22.494;2022-12-18T06:07:50;100877.84;;;-7.33;93.77
75650;BME280;64245;51.282;22.494;2022-12-18T06:10:16;100876.97;;;-7.34;93.28
75650;BME280;64245;51.282;22.494;2022-12-18T06:12:41;100884.81;;;-7.40;93.74
75650;BME280;64245;51.282;22.494;2022-12-18T06:15:08;100876.88;;;-7.59;93.46
75650;BME280;64245;51.282;22.494;2022-12-18T06:17:34;100910.97;;;-7.38;93.60
75650;BME280;64245;51.282;22.494;2022-12-18T06:20:00;100894.41;;;-7.37;93.75
75650;BME280;64245;51.282;22.494;2022-12-18T06:22:27;100896.19;;;-7.25;93.17
75650;BME280;64245;51.282;22.494;2022-12-18T06:24:53;100896.19;;;-7.25;93.21
75650;BME280;64245;51.282;22.494;2022-12-18T06:27:19;100896.19;;;-7.24;93.79
75650;BME280;64245;51.282;22.494;2022-12-18T06:29:44;100897.97;;;-7.17;93.59
75650;BME280;64245;51.282;22.494;2022-12-18T06:32:10;100908.47;;;-7.03;93.53
75650;BME280;64245;51.282;22.494;2022-12-18T06:34:37;100911.06;;;-7.18;93.67
75650;BME280;64245;51.282;22.494;2022-12-18T06:37:02;100937.25;;;-7.06;93.50
75650;BME280;64245;51.282;22.494;2022-12-18T06:39:29;100907.56;;;-7.11;94.12
75650;BME280;64245;51.282;22.494;2022-12-18T06:41:54;100925.91;;;-7.14;93.03
75650;BME280;64245;51.282;22.494;2022-12-18T06:44:20;100935.53;;;-7.01;93.52
75650;BME280;64245;51.282;22.494;2022-12-18T06:46:45;100922.41;;;-7.07;93.59
75650;BME280;64245;51.282;22.494;2022-12-18T06:49:11;100939.06;;;-6.85;93.21
75650;BME280;64245;51.282;22.494;2022-12-18T06:51:37;100959.19;;;-6.78;93.23
75650;BME280;64245;51.282;22.494;2022-12-18T06:54:03;100973.16;;;-6.79;93.46
75650;BME280;64245;51.282;22.494;2022-12-18T06:56:29;100943.44;;;-6.87;92.69
75650;BME280;64245;51.282;22.494;2022-12-18T06:58:55;100934.69;;;-6.95;93.11
75650;BME280;64245;51.282;22.494;2022-12-18T07:01:21;100944.34;;;-6.76;93.09
75650;BME280;64245;51.282;22.494;2022-12-18T07:03:51;100946.91;;;-6.96;92.82
75650;BME280;64245;51.282;22.494;2022-12-18T07:06:21;100962.63;;;-6.90;93.02
75650;BME280;64245;51.282;22.494;2022-12-18T07:08:48;100946.88;;;-7.01;93.89
75650;BME280;64245;51.282;22.494;2022-12-18T07:11:14;100960.88;;;-6.86;93.93
75650;BME280;64245;51.282;22.494;2022-12-18T07:13:40;100989.75;;;-6.70;93.49
75650;BME280;64245;51.282;22.494;2022-12-18T07:16:06;100994.16;;;-6.59;92.96
75650;BME280;64245;51.282;22.494;2022-12-18T07:18:32;100980.09;;;-6.84;93.54
75650;BME280;64245;51.282;22.494;2022-12-18T07:20:58;100982.72;;;-6.86;93.50
75650;BME280;64245;51.282;22.494;2022-12-18T07:23:27;101006.38;;;-6.62;93.37
75650;BME280;64245;51.282;22.494;2022-12-18T07:25:52;101006.38;;;-6.63;93.24
75650;BME280;64245;51.282;22.494;2022-12-18T07:28:18;100996.72;;;-6.72;92.94
75650;BME280;64245;51.282;22.494;2022-12-18T07:30:44;100987.19;;;-6.54;92.63
75650;BME280;64245;51.282;22.494;2022-12-18T07:33:10;101012.50;;;-6.49;92.84
75650;BME280;64245;51.282;22.494;2022-12-18T07:35:38;101008.16;;;-6.42;92.68
75650;BME280;64245;51.282;22.494;2022-12-18T07:38:04;101033.53;;;-6.38;92.75
75650;BME280;64245;51.282;22.494;2022-12-18T07:40:30;101010.81;;;-6.36;92.46
75650;BME280;64245;51.282;22.494;2022-12-18T07:42:56;101016.94;;;-6.17;91.79
75650;BME280;64245;51.282;22.494;2022-12-18T07:45:21;101044.00;;;-6.32;92.04
75650;BME280;64245;51.282;22.494;2022-12-18T07:47:47;101055.38;;;-6.13;92.16
75650;BME280;64245;51.282;22.494;2022-12-18T07:50:13;101023.91;;;-6.30;91.82
75650;BME280;64245;51.282;22.494;2022-12-18T07:52:39;101039.66;;;-6.27;91.52
75650;BME280;64245;51.282;22.494;2022-12-18T07:55:05;101027.41;;;-6.31;92.42
75650;BME280;64245;51.282;22.494;2022-12-18T07:57:30;101022.19;;;-6.20;90.96
75650;BME280;64245;51.282;22.494;2022-12-18T07:59:56;101051.06;;;-6.04;90.83
75650;BME280;64245;51.282;22.494;2022-12-18T08:02:22;101063.28;;;-6.04;91.21
75650;BME280;64245;51.282;22.494;2022-12-18T08:04:47;101047.53;;;-6.07;90.56
75650;BME280;64245;51.282;22.494;2022-12-18T08:07:13;101061.53;;;-5.93;90.77
75650;BME280;64245;51.282;22.494;2022-12-18T08:09:38;101062.44;;;-5.97;91.08
75650;BME280;64245;51.282;22.494;2022-12-18T08:12:05;101070.28;;;-6.05;90.20
75650;BME280;64245;51.282;22.494;2022-12-18T08:14:30;101061.50;;;-6.20;90.71
75650;BME280;64245;51.282;22.494;2022-12-18T08:16:56;101055.41;;;-6.19;90.21
75650;BME280;64245;51.282;22.494;2022-12-18T08:19:21;101056.25;;;-6.22;90.63
75650;BME280;64245;51.282;22.494;2022-12-18T08:21:47;101065.84;;;-6.29;90.55
75650;BME280;64245;51.282;22.494;2022-12-18T08:24:13;101055.41;;;-6.07;90.98
75650;BME280;64245;51.282;22.494;2022-12-18T08:26:39;101090.41;;;-5.88;90.24
75650;BME280;64245;51.282;22.494;2022-12-18T08:29:04;101073.78;;;-5.95;89.89
75650;BME280;64245;51.282;22.494;2022-12-18T08:31:30;101075.53;;;-6.00;89.80
75650;BME280;64245;51.282;22.494;2022-12-18T08:33:56;101105.25;;;-5.92;90.23
75650;BME280;64245;51.282;22.494;2022-12-18T08:36:23;101077.28;;;-5.93;89.78
75650;BME280;64245;51.282;22.494;2022-12-18T08:38:49;101105.25;;;-5.78;89.57
75650;BME280;64245;51.282;22.494;2022-12-18T08:41:16;101106.13;;;-5.85;89.02
75650;BME280;64245;51.282;22.494;2022-12-18T08:43:42;101088.66;;;-5.91;89.52
75650;BME280;64245;51.282;22.494;2022-12-18T08:46:32;101095.66;;;-5.78;88.37
75650;BME280;64245;51.282;22.494;2022-12-18T08:48:59;101112.25;;;-5.68;88.72
75650;BME280;64245;51.282;22.494;2022-12-18T08:51:25;101117.50;;;-5.85;88.69
75650;BME280;64245;51.282;22.494;2022-12-18T08:53:50;101107.00;;;-5.82;89.27
75650;BME280;64245;51.282;22.494;2022-12-18T08:56:16;101110.50;;;-5.78;88.71
75650;BME280;64245;51.282;22.494;2022-12-18T08:58:42;101112.25;;;-5.79;87.96
75650;BME280;64245;51.282;22.494;2022-12-18T09:01:10;101115.75;;;-5.81;88.33
75650;BME280;64245;51.282;22.494;2022-12-18T09:03:36;101114.00;;;-5.84;88.26
75650;BME280;64245;51.282;22.494;2022-12-18T09:06:03;101120.09;;;-5.76;88.22
75650;BME280;64245;51.282;22.494;2022-12-18T09:08:29;101133.25;;;-5.71;87.52
75650;BME280;64245;51.282;22.494;2022-12-18T09:10:54;101140.25;;;-5.64;87.90
75650;BME280;64245;51.282;22.494;2022-12-18T09:13:21;101143.72;;;-5.94;88.19
75650;BME280;64245;51.282;22.494;2022-12-18T09:15:48;101147.25;;;-5.66;88.40
75650;BME280;64245;51.282;22.494;2022-12-18T09:18:17;101136.75;;;-5.81;88.24
75650;BME280;64245;51.282;22.494;2022-12-18T09:20:43;101147.19;;;-6.06;88.31
75650;BME280;64245;51.282;22.494;2022-12-18T09:23:09;101161.19;;;-5.96;89.17
75650;BME280;64245;51.282;22.494;2022-12-18T09:25:36;101138.44;;;-6.09;87.54
75650;BME280;64245;51.282;22.494;2022-12-18T09:28:04;101140.19;;;-6.10;87.99
75650;BME280;64245;51.282;22.494;2022-12-18T09:30:31;101158.56;;;-5.96;87.88
75650;BME280;64245;51.282;22.494;2022-12-18T09:32:59;101148.91;;;-6.11;87.75
75650;BME280;64245;51.282;22.494;2022-12-18T09:35:24;101171.66;;;-6.11;87.77
75650;BME280;64245;51.282;22.494;2022-12-18T09:37:50;101176.94;;;-5.92;87.25
75650;BME280;64245;51.282;22.494;2022-12-18T09:40:18;101164.59;;;-6.31;87.47
75650;BME280;64245;51.282;22.494;2022-12-18T09:42:51;101171.66;;;-6.17;87.42
75650;BME280;64245;51.282;22.494;2022-12-18T09:45:17;101197.06;;;-6.01;87.56
75650;BME280;64245;51.282;22.494;2022-12-18T09:47:45;101185.72;;;-5.73;87.80
75650;BME280;64245;51.282;22.494;2022-12-18T09:50:34;101183.97;;;-5.89;87.01
75650;BME280;64245;51.282;22.494;2022-12-18T09:53:06;101196.19;;;-5.93;87.48
75650;BME280;64245;51.282;22.494;2022-12-18T09:58:20;101185.75;;;-5.65;86.77
75650;BME280;64245;51.282;22.494;2022-12-18T10:00:52;101183.09;;;-5.80;86.41
75650;BME280;64245;51.282;22.494;2022-12-18T10:03:17;101181.31;;;-5.95;86.69
75650;BME280;64245;51.282;22.494;2022-12-18T10:06:02;101190.94;;;-5.97;87.43
75650;BME280;64245;51.282;22.494;2022-12-18T10:08:59;101174.34;;;-5.88;87.03
75650;BME280;64245;51.282;22.494;2022-12-18T10:11:54;101199.69;;;-5.89;85.49
75650;BME280;64245;51.282;22.494;2022-12-18T10:17:12;101198.84;;;-5.70;85.04
75650;BME280;64245;51.282;22.494;2022-12-18T10:19:44;101171.72;;;-5.75;84.17
75650;BME280;64245;51.282;22.494;2022-12-18T10:22:39;101209.31;;;-5.76;84.42
75650;BME280;64245;51.282;22.494;2022-12-18T10:25:26;101212.78;;;-6.04;85.05
75650;BME280;64245;51.282;22.494;2022-12-18T10:28:10;101218.03;;;-5.94;84.82
75650;BME280;64245;51.282;22.494;2022-12-18T10:30:39;101193.56;;;-5.88;84.67
75650;BME280;64245;51.282;22.494;2022-12-18T10:33:08;101199.69;;;-5.90;84.77
75650;BME280;64245;51.282;22.494;2022-12-18T10:35:35;101195.31;;;-5.85;84.78
75650;BME280;64245;51.282;22.494;2022-12-18T10:38:02;101203.19;;;-5.84;83.83
75650;BME280;64245;51.282;22.494;2022-12-18T10:40:28;101201.34;;;-6.15;84.56
75650;BME280;64245;51.282;22.494;2022-12-18T10:43:12;101211.94;;;-5.97;84.61
75650;BME280;64245;51.282;22.494;2022-12-18T10:45:38;101210.06;;;-6.24;84.61
75650;BME280;64245;51.282;22.494;2022-12-18T10:48:17;101184.72;;;-6.27;85.39
75650;BME280;64245;51.282;22.494;2022-12-18T10:50:47;101228.44;;;-6.13;85.21
75650;BME280;64245;51.282;22.494;2022-12-18T10:53:20;101214.53;;;-5.93;84.81
75650;BME280;64245;51.282;22.494;2022-12-18T10:55:47;101202.25;;;-6.07;84.36
75650;BME280;64245;51.282;22.494;2022-12-18T10:58:25;101192.66;;;-6.07;85.04
75650;BME280;64245;51.282;22.494;2022-12-18T11:03:58;101215.41;;;-5.86;84.66
75650;BME280;64245;51.282;22.494;2022-12-18T11:06:25;101179.56;;;-6.01;83.90
75650;BME280;64245;51.282;22.494;2022-12-18T11:09:20;101189.22;;;-5.80;83.23
75650;BME280;64245;51.282;22.494;2022-12-18T11:11:50;101186.44;;;-6.36;84.55
75650;BME280;64245;51.282;22.494;2022-12-18T11:14:22;101225.72;;;-6.33;84.54
75650;BME280;64245;51.282;22.494;2022-12-18T11:16:49;101223.25;;;-6.03;84.56
75650;BME280;64245;51.282;22.494;2022-12-18T11:19:37;101230.13;;;-6.35;85.53
75650;BME280;64245;51.282;22.494;2022-12-18T11:22:19;101238.75;;;-6.48;85.75
75650;BME280;64245;51.282;22.494;2022-12-18T11:25:01;101216.56;;;-7.01;85.92
75650;BME280;64245;51.282;22.494;2022-12-18T11:27:27;101249.94;;;-6.75;85.59
75650;BME280;64245;51.282;22.494;2022-12-18T11:30:20;101250.78;;;-6.81;85.43
75650;BME280;64245;51.282;22.494;2022-12-18T11:33:09;101248.34;;;-6.50;84.90
75650;BME280;64245;51.282;22.494;2022-12-18T11:36:01;101249.28;;;-6.42;84.17
75650;BME280;64245;51.282;22.494;2022-12-18T11:38:32;101245.91;;;-6.23;84.56
75650;BME280;64245;51.282;22.494;2022-12-18T11:41:30;101251.28;;;-5.97;83.25
75650;BME280;64245;51.282;22.494;2022-12-18T11:44:57;101251.00;;;-6.46;84.31
75650;BME280;64245;51.282;22.494;2022-12-18T11:47:40;101210.56;;;-6.86;84.57
75650;BME280;64245;51.282;22.494;2022-12-18T11:50:22;101236.94;;;-6.62;84.86
75650;BME280;64245;51.282;22.494;2022-12-18T11:52:49;101232.66;;;-6.44;84.86
75650;BME280;64245;51.282;22.494;2022-12-18T11:55:37;101260.75;;;-6.22;84.69
75650;BME280;64245;51.282;22.494;2022-12-18T12:06:14;101262.81;;;-7.01;86.23
75650;BME280;64245;51.282;22.494;2022-12-18T12:09:10;101274.47;;;-6.66;86.72
75650;BME280;64245;51.282;22.494;2022-12-18T12:11:55;101278.00;;;-6.59;86.22
75650;BME280;64245;51.282;22.494;2022-12-18T12:14:41;101265.78;;;-6.58;86.31
75650;BME280;64245;51.282;22.494;2022-12-18T12:17:42;101281.47;;;-6.63;85.74
75650;BME280;64245;51.282;22.494;2022-12-18T12:23:55;101282.19;;;-6.82;87.66
75650;BME280;64245;51.282;22.494;2022-12-18T12:29:14;101293.50;;;-6.86;86.86
75650;BME280;64245;51.282;22.494;2022-12-18T12:37:19;101307.59;;;-6.71;86.65
75650;BME280;64245;51.282;22.494;2022-12-18T12:39:50;101292.63;;;-6.87;86.91
75650;BME280;64245;51.282;22.494;2022-12-18T12:42:43;101276.69;;;-7.11;87.57
75650;BME280;64245;51.282;22.494;2022-12-18T12:45:34;101299.53;;;-6.97;87.54
75650;BME280;64245;51.282;22.494;2022-12-18T12:48:02;101315.34;;;-6.86;87.54
75650;BME280;64245;51.282;22.494;2022-12-18T12:50:30;101297.63;;;-7.16;87.18
75650;BME280;64245;51.282;22.494;2022-12-18T12:53:01;101309.72;;;-7.25;88.09
75650;BME280;64245;51.282;22.494;2022-12-18T12:55:28;101332.16;;;-7.46;88.31
75650;BME280;64245;51.282;22.494;2022-12-18T12:58:19;101337.53;;;-7.37;89.26
75650;BME280;64245;51.282;22.494;2022-12-18T13:03:48;101344.56;;;-7.29;88.96
75650;BME280;64245;51.282;22.494;2022-12-18T13:09:13;101339.47;;;-7.17;87.70
75650;BME280;64245;51.282;22.494;2022-12-18T13:11:46;101358.53;;;-7.27;88.09
75650;BME280;64245;51.282;22.494;2022-12-18T13:14:36;101351.19;;;-7.60;89.21
75650;BME280;64245;51.282;22.494;2022-12-18T13:19:44;101367.91;;;-7.51;90.15
75650;BME280;64245;51.282;22.494;2022-12-18T13:22:34;101375.50;;;-7.68;90.05
75650;BME280;64245;51.282;22.494;2022-12-18T13:25:00;101381.78;;;-7.55;89.87
75650;BME280;64245;51.282;22.494;2022-12-18T13:30:49;101393.44;;;-7.32;89.62
75650;BME280;64245;51.282;22.494;2022-12-18T13:38:36;101406.28;;;-7.47;90.33
75650;BME280;64245;51.282;22.494;2022-12-18T13:41:07;101398.81;;;-7.16;89.52
75650;BME280;64245;51.282;22.494;2022-12-18T13:43:51;101413.75;;;-7.08;88.21
75650;BME280;64245;51.282;22.494;2022-12-18T13:49:00;101408.56;;;-7.03;89.16
75650;BME280;64245;51.282;22.494;2022-12-18T13:51:28;101406.78;;;-7.07;88.76
75650;BME280;64245;51.282;22.494;2022-12-18T13:54:19;101391.66;;;-7.31;89.40
75650;BME280;64245;51.282;22.494;2022-12-18T13:56:48;101400.41;;;-7.32;89.22
75650;BME280;64245;51.282;22.494;2022-12-18T13:59:18;101424.94;;;-7.21;89.13
75650;BME280;64245;51.282;22.494;2022-12-18T14:06:47;101429.19;;;-7.32;90.39
75650;BME280;64245;51.282;22.494;2022-12-18T14:09:15;101432.44;;;-7.48;90.00
75650;BME280;64245;51.282;22.494;2022-12-18T14:11:46;101430.44;;;-7.66;90.78